Moulton, Iowa
Current Conditions -  °F | °C
As of 10:50 AM on Thursday 27 Nov 2014 (Local Time) from KTVK Reporting Station
Clear Clear  
Wind Chill:   Ceiling: Unl
Heat Index: 18°   Visibility: 10mi
Dew Point: 10°   Wind: 9mph
Humidity: 73%   Direction: 310°NW
Pressure: 30.52"   Gusts: NA
Location:  40.69°N, 92.68°W
Report Text: KTVK 271650Z AUTO 31008KT 10SM CLR M08/M12 A3052 RMK AO2
Loading
Personal Weather Stations






























Interactive Weather Map New forecast layout! Learn more

10-Day Weather Forecast

Advertisements
Track Severe Weather on mobile